YDER weather

Derrinallum Airport
Victoria, Australia

Public forecast

Using degrees Celsius for public forecast. Weather courtesy of forecast.io.

METAR (pilot weather report)

Closest report is Avalon Airport, 59.1 nm (109.4 km) E. Retrieved 2019/04/21 18:00 UTC (19 minutes ago):

YMAV 211800Z AUTO 27006KT 9999 // OVC046 14/10 Q1023 RF00.0/000.0

TAF (pilot weather forecast)

Closest forecast is Avalon Airport, 59.1 nm (109.4 km) E. Retrieved 2019/04/21 18:00 UTC (19 minutes ago):

TAF YMAV 211719Z 2118/2218 25008KT 9999 -SHRA SCT015 BKN022 FM212200 22008KT 9999 FEW020 BKN030 FM220200 15012KT 9999 FEW025 BKN035 FM220700 15007KT 9999 SCT030 INTER 2118/2120 5000 SHRA BKN010